Time;durP1;ratioP1;P1;durP2;ratioP2;P2;SDS_P1;SDS_P2;PMS_P1;PMS_P2;Temp;Humidity;BMP_temperature;BMP_pressure;BME280_temperature;BME280_humidity;BME280_pressure;Samples;Min_cycle;Max_cycle;Signal;HPM_P1;HPM_P2
2022/07/25 00:00:23;;;;;;;7.13;2.58;;;;;;;19.75;62.34;100808.41;5009351;28;20053;-81
2022/07/25 00:02:50;;;;;;;5.95;2.38;;;;;;;19.78;62.24;100796.41;5011560;28;20522;-81
2022/07/25 00:05:17;;;;;;;3.72;2.25;;;;;;;19.88;62.24;100807.38;5010793;28;20521;-81
2022/07/25 00:07:44;;;;;;;4.25;2.78;;;;;;;19.88;62.29;100813.03;5026206;28;20104;-81
2022/07/25 00:10:11;;;;;;;3.30;2.22;;;;;;;19.66;62.14;100780.09;5015945;28;20128;-80
2022/07/25 00:12:38;;;;;;;4.53;2.45;;;;;;;19.85;62.28;100808.88;5010471;28;20046;-80
2022/07/25 00:15:06;;;;;;;8.52;2.53;;;;;;;19.80;62.13;100811.06;5013767;28;20133;-80
2022/07/25 00:17:32;;;;;;;5.38;2.65;;;;;;;19.65;62.55;100793.41;5014222;28;20104;-80
2022/07/25 00:20:00;;;;;;;3.53;2.33;;;;;;;19.78;62.28;100816.22;5030604;28;20133;-79
2022/07/25 00:22:27;;;;;;;7.90;2.40;;;;;;;19.72;62.31;100806.25;5009778;28;20129;-79
2022/07/25 00:24:54;;;;;;;4.00;2.50;;;;;;;19.60;62.23;100785.06;5012996;28;20133;-79
2022/07/25 00:27:20;;;;;;;4.95;2.53;;;;;;;19.67;62.34;100807.25;5013127;28;20050;-79
2022/07/25 00:29:47;;;;;;;28.95;18.10;;;;;;;19.66;62.45;100799.94;5010839;28;20081;-79
2022/07/25 00:32:14;;;;;;;11.32;6.30;;;;;;;19.62;62.15;100802.56;5011459;28;20144;-78
2022/07/25 00:34:41;;;;;;;12.00;8.00;;;;;;;19.56;62.20;100801.06;5011314;28;20500;-78
2022/07/25 00:37:08;;;;;;;7.68;3.10;;;;;;;19.56;62.35;100803.09;5007118;28;20077;-79
2022/07/25 00:39:35;;;;;;;3.50;2.55;;;;;;;19.63;62.15;100818.44;5009470;28;20070;-78
2022/07/25 00:42:02;;;;;;;4.18;2.45;;;;;;;19.44;62.33;100786.75;5013819;28;20049;-79
2022/07/25 00:44:31;;;;;;;3.95;2.58;;;;;;;19.52;62.55;100793.56;5031482;28;20521;-79
2022/07/25 00:46:58;;;;;;;6.68;2.28;;;;;;;19.60;62.61;100801.25;5014366;28;20461;-80
2022/07/25 00:49:25;;;;;;;7.35;2.15;;;;;;;19.45;62.65;100782.75;5011491;28;20096;-80
2022/07/25 00:51:53;;;;;;;4.65;2.35;;;;;;;19.49;62.72;100786.59;5011115;28;20081;-81
2022/07/25 00:54:21;;;;;;;7.22;3.15;;;;;;;19.39;62.80;100773.59;5009563;28;20085;-80
2022/07/25 00:56:49;;;;;;;3.55;2.38;;;;;;;19.22;62.81;100752.97;5013372;28;20081;-80
2022/07/25 00:59:16;;;;;;;4.18;2.22;;;;;;;19.38;62.76;100782.41;5010627;28;20092;-80
2022/07/25 01:01:46;;;;;;;5.32;2.38;;;;;;;19.39;63.18;100779.28;5011683;28;20447;-80
2022/07/25 01:04:14;;;;;;;5.55;2.92;;;;;;;19.40;63.07;100799.91;5012519;28;20096;-80
2022/07/25 01:06:42;;;;;;;3.65;2.17;;;;;;;19.12;63.16;100766.28;5011441;28;20084;-80
2022/07/25 01:09:09;;;;;;;6.97;2.65;;;;;;;19.22;63.08;100784.94;5011315;28;20132;-79
2022/07/25 01:11:35;;;;;;;5.22;2.25;;;;;;;19.25;63.43;100789.09;5009352;28;20117;-79
2022/07/25 01:14:03;;;;;;;5.10;2.58;;;;;;;19.31;63.62;100796.25;5009908;28;20121;-79
2022/07/25 01:16:30;;;;;;;4.65;2.55;;;;;;;19.20;63.58;100775.94;5009225;28;20058;-80
2022/07/25 01:18:57;;;;;;;4.15;3.05;;;;;;;19.23;63.47;100772.44;5019178;28;20085;-80
2022/07/25 01:21:25;;;;;;;5.28;2.67;;;;;;;19.08;63.27;100748.31;5011064;28;20136;-79
2022/07/25 01:23:52;;;;;;;3.97;2.38;;;;;;;19.15;63.27;100756.31;5012008;28;20124;-78
2022/07/25 01:26:19;;;;;;;5.82;2.40;;;;;;;18.94;63.25;100720.19;4992802;28;20081;-82
2022/07/25 01:28:46;;;;;;;8.27;2.80;;;;;;;19.19;63.53;100751.63;5015156;28;20076;-81
2022/07/25 01:31:12;;;;;;;5.13;3.00;;;;;;;19.16;63.74;100752.31;5039502;28;20074;-80
2022/07/25 01:33:39;;;;;;;5.15;2.53;;;;;;;19.07;63.64;100749.47;5024099;28;20549;-79
2022/07/25 01:36:07;;;;;;;4.70;2.47;;;;;;;18.98;63.57;100709.03;5029912;28;20053;-78
2022/07/25 01:38:33;;;;;;;5.88;2.47;;;;;;;19.15;63.61;100740.16;5027446;28;20030;-81
2022/07/25 01:41:00;;;;;;;4.57;2.20;;;;;;;19.22;63.48;100750.16;5010367;28;20137;-80
2022/07/25 01:43:27;;;;;;;5.88;2.75;;;;;;;19.15;63.84;100722.34;5005718;28;20084;-80
2022/07/25 01:45:54;;;;;;;7.15;3.25;;;;;;;19.17;63.75;100736.97;5009693;28;20476;-80
2022/07/25 01:48:21;;;;;;;6.43;2.95;;;;;;;19.07;63.60;100720.31;5009562;28;20057;-81
2022/07/25 01:50:48;;;;;;;4.68;2.70;;;;;;;19.23;63.76;100757.47;5009192;28;20081;-81
2022/07/25 01:53:15;;;;;;;4.93;2.75;;;;;;;19.13;63.39;100736.81;5002613;28;20060;-81
2022/07/25 01:55:44;;;;;;;5.72;3.20;;;;;;;19.20;63.64;100744.78;5011898;28;20128;-80
2022/07/25 01:58:11;;;;;;;7.22;3.42;;;;;;;19.24;63.77;100756.28;5010042;28;20461;-80
2022/07/25 02:00:38;;;;;;;7.03;3.88;;;;;;;19.28;64.06;100757.28;5010101;28;20132;-81
2022/07/25 02:05:50;;;;;;;7.18;4.05;;;;;;;19.20;64.11;100746.81;5009815;28;22320;-80
2022/07/25 02:08:17;;;;;;;7.55;3.97;;;;;;;19.27;64.01;100747.97;5011253;28;20487;-81
2022/07/25 02:10:44;;;;;;;8.80;3.47;;;;;;;19.15;64.24;100734.50;5010470;28;20084;-80
2022/07/25 02:13:11;;;;;;;9.32;4.32;;;;;;;19.32;64.30;100758.28;5008676;28;20125;-80
2022/07/25 02:15:38;;;;;;;6.03;3.83;;;;;;;19.36;64.43;100762.13;5009192;28;20041;-80
2022/07/25 02:18:05;;;;;;;7.35;3.95;;;;;;;19.23;64.33;100740.47;5011302;28;20514;-80
2022/07/25 02:20:32;;;;;;;9.27;3.55;;;;;;;19.15;64.45;100717.50;5005113;28;20078;-79
2022/07/25 02:22:59;;;;;;;8.88;3.67;;;;;;;19.26;64.50;100740.63;5010017;28;20133;-79
2022/07/25 02:25:25;;;;;;;5.60;3.30;;;;;;;19.08;64.25;100708.69;5009361;28;20045;-79
2022/07/25 02:27:52;;;;;;;4.43;2.95;;;;;;;19.11;64.57;100710.84;5010063;28;20411;-79
2022/07/25 02:30:19;;;;;;;8.93;3.13;;;;;;;19.38;64.50;100754.09;5007254;28;20125;-79
2022/07/25 02:32:46;;;;;;;7.43;3.80;;;;;;;19.41;64.67;100759.09;5007964;28;20415;-79
2022/07/25 02:35:13;;;;;;;6.68;3.17;;;;;;;19.44;64.43;100764.09;5006007;28;20046;-79
2022/07/25 02:37:41;;;;;;;5.90;3.60;;;;;;;19.42;64.59;100752.28;5011201;28;20115;-79
2022/07/25 02:40:08;;;;;;;8.65;3.63;;;;;;;19.20;64.36;100727.81;5010182;28;20093;-79
2022/07/25 02:42:36;;;;;;;7.15;3.08;;;;;;;19.25;64.04;100732.47;5012354;28;20085;-79
2022/07/25 02:45:04;;;;;;;8.80;3.25;;;;;;;19.28;64.05;100743.13;5010597;28;20589;-80
2022/07/25 02:47:31;;;;;;;5.90;3.25;;;;;;;19.25;64.12;100743.78;5011421;28;20081;-80
2022/07/25 02:49:58;;;;;;;6.95;3.67;;;;;;;19.13;64.11;100731.16;5024873;28;20132;-82
2022/07/25 02:52:25;;;;;;;8.18;3.85;;;;;;;19.14;64.29;100731.97;5010538;28;20077;-82
2022/07/25 02:54:51;;;;;;;5.65;3.33;;;;;;;19.20;64.35;100738.31;5008559;28;20133;-81
2022/07/25 02:57:19;;;;;;;5.65;3.10;;;;;;;19.29;64.11;100756.97;5020534;28;20077;-81
2022/07/25 02:59:46;;;;;;;5.60;3.50;;;;;;;19.18;64.13;100744.31;5009290;28;20463;-82
2022/07/25 03:02:12;;;;;;;7.68;4.05;;;;;;;19.15;64.45;100739.31;5006801;28;20140;-82
2022/07/25 03:04:39;;;;;;;5.95;2.90;;;;;;;19.27;64.21;100758.44;5004794;28;20574;-82
2022/07/25 03:07:06;;;;;;;6.65;3.90;;;;;;;19.17;63.91;100757.63;5021936;28;20085;-82
2022/07/25 03:09:33;;;;;;;7.63;3.47;;;;;;;18.77;63.99;100708.88;5023137;28;20540;-81
2022/07/25 03:12:00;;;;;;;6.90;3.85;;;;;;;18.83;63.55;100732.97;5008654;28;20132;-81
2022/07/25 03:14:27;;;;;;;4.38;3.10;;;;;;;18.98;63.78;100765.63;5010378;28;20082;-81
2022/07/25 03:16:53;;;;;;;6.97;3.75;;;;;;;18.93;63.91;100772.25;5007009;28;20520;-81
2022/07/25 03:19:20;;;;;;;6.18;3.67;;;;;;;18.81;63.81;100768.44;5005697;28;20455;-81
2022/07/25 03:21:48;;;;;;;6.53;4.68;;;;;;;18.75;64.16;100762.09;5008190;28;20501;-81
2022/07/25 03:24:17;;;;;;;6.88;4.05;;;;;;;18.74;64.16;100757.63;5008298;28;20140;-81
2022/07/25 03:26:44;;;;;;;6.97;3.58;;;;;;;18.64;64.24;100753.06;5008081;28;20056;-81
2022/07/25 03:29:11;;;;;;;10.20;4.90;;;;;;;18.64;64.15;100757.91;5009364;28;20046;-80
2022/07/25 03:31:38;;;;;;;5.20;3.40;;;;;;;18.57;64.01;100738.59;5008625;28;20588;-80
2022/07/25 03:34:05;;;;;;;5.05;3.60;;;;;;;18.63;63.61;100757.06;5012720;28;20053;-80
2022/07/25 03:36:32;;;;;;;6.45;3.75;;;;;;;18.53;63.40;100729.09;5004643;28;20073;-80
2022/07/25 03:38:59;;;;;;;4.50;3.00;;;;;;;18.58;63.61;100737.41;5010725;28;20129;-79
2022/07/25 03:41:31;;;;;;;6.32;3.80;;;;;;;18.65;63.52;100751.91;5012957;28;20049;-80
2022/07/25 03:43:58;;;;;;;5.63;3.35;;;;;;;18.70;63.70;100751.75;5009444;28;20142;-78
2022/07/25 03:46:24;;;;;;;3.90;2.90;;;;;;;18.43;63.63;100718.94;5005312;28;20070;-80
2022/07/25 03:48:51;;;;;;;5.28;3.38;;;;;;;18.43;63.44;100713.28;5010504;28;20049;-79
2022/07/25 03:51:18;;;;;;;5.97;3.30;;;;;;;18.65;63.38;100763.22;5009276;28;20045;-79
2022/07/25 03:54:00;;;;;;;4.15;2.65;;;;;;;18.53;63.23;100748.91;5009633;28;20494;-79
2022/07/25 03:56:34;;;;;;;5.20;2.80;;;;;;;18.55;63.49;100755.03;5007715;28;20054;-79
2022/07/25 03:59:10;;;;;;;6.90;3.40;;;;;;;18.41;63.15;100737.38;4999425;28;20054;-79
2022/07/25 04:01:37;;;;;;;6.47;2.97;;;;;;;18.34;63.38;100742.69;5004507;28;20074;-80
2022/07/25 04:04:04;;;;;;;4.70;3.00;;;;;;;18.30;63.39;100738.84;5028140;28;20069;-81
2022/07/25 04:06:32;;;;;;;5.43;2.80;;;;;;;18.31;63.20;100738.50;5014669;28;20050;-81
2022/07/25 04:08:59;;;;;;;6.90;3.55;;;;;;;18.35;63.62;100750.00;5008656;28;20069;-81
2022/07/25 04:11:27;;;;;;;10.13;3.45;;;;;;;18.29;63.31;100735.19;5005564;28;20132;-81
2022/07/25 04:13:54;;;;;;;6.35;3.35;;;;;;;18.33;63.28;100741.84;5010223;28;20104;-82
2022/07/25 04:16:21;;;;;;;8.23;4.10;;;;;;;18.33;63.38;100735.38;5008732;28;20076;-81
2022/07/25 04:18:50;;;;;;;4.57;2.78;;;;;;;18.36;64.88;100740.34;5009261;28;20088;-80
2022/07/25 04:21:17;;;;;;;4.82;3.45;;;;;;;18.48;64.81;100744.22;5006927;28;20056;-81
2022/07/25 04:23:44;;;;;;;5.38;3.35;;;;;;;18.56;64.54;100744.56;5008735;28;20077;-81
2022/07/25 04:26:11;;;;;;;6.65;3.97;;;;;;;18.72;64.68;100759.94;5023027;28;20077;-81
2022/07/25 04:28:38;;;;;;;7.57;3.85;;;;;;;18.71;64.79;100749.75;5005762;28;20430;-81
2022/07/25 04:31:05;;;;;;;5.40;2.97;;;;;;;18.63;64.67;100734.44;5009020;28;20093;-82
2022/07/25 04:33:31;;;;;;;4.13;2.60;;;;;;;18.70;64.18;100753.75;4991886;28;20077;-80
2022/07/25 04:35:59;;;;;;;6.53;3.20;;;;;;;18.61;64.18;100753.72;5004837;28;20585;-80
2022/07/25 04:38:25;;;;;;;7.53;3.10;;;;;;;18.59;63.97;100753.22;5008129;28;20167;-81
2022/07/25 04:40:52;;;;;;;5.53;2.83;;;;;;;18.47;63.61;100738.91;5026042;28;20133;-81
2022/07/25 04:43:20;;;;;;;5.20;3.20;;;;;;;18.64;63.27;100758.72;5015444;28;20204;-80
2022/07/25 04:45:47;;;;;;;6.20;3.38;;;;;;;18.57;63.26;100757.56;5008201;28;20558;-81
2022/07/25 04:48:14;;;;;;;5.32;3.08;;;;;;;18.57;63.59;100761.22;5013374;28;20085;-81
2022/07/25 04:50:41;;;;;;;4.90;2.95;;;;;;;18.39;63.25;100743.38;5016361;28;20136;-82
2022/07/25 04:53:09;;;;;;;4.75;2.97;;;;;;;18.40;63.38;100752.69;5013574;28;20054;-81
2022/07/25 04:55:37;;;;;;;7.13;3.58;;;;;;;18.46;63.31;100771.16;5011545;28;20140;-81
2022/07/25 04:58:04;;;;;;;5.68;3.35;;;;;;;18.33;63.41;100741.84;5011511;28;20129;-82
2022/07/25 05:00:32;;;;;;;6.38;3.42;;;;;;;18.40;63.41;100764.00;5010498;28;20085;-81
2022/07/25 05:02:59;;;;;;;6.53;4.13;;;;;;;18.30;63.02;100748.16;5011531;28;20054;-81
2022/07/25 05:05:26;;;;;;;6.07;3.40;;;;;;;18.21;63.43;100741.66;5012359;28;20132;-80
2022/07/25 05:07:58;;;;;;;6.60;3.42;;;;;;;18.23;63.21;100751.47;5011107;28;20133;-82
2022/07/25 05:10:26;;;;;;;7.93;4.40;;;;;;;18.16;63.90;100750.28;5029885;28;20050;-81
2022/07/25 05:12:54;;;;;;;4.75;3.22;;;;;;;18.30;64.04;100770.78;5012429;28;20097;-80
2022/07/25 05:15:21;;;;;;;10.63;3.60;;;;;;;18.23;64.14;100759.94;5012642;28;20129;-80
2022/07/25 05:17:49;;;;;;;5.30;3.20;;;;;;;18.38;64.14;100775.63;5010551;28;20108;-81
2022/07/25 05:20:16;;;;;;;6.50;3.83;;;;;;;18.45;64.08;100781.63;5012434;28;20561;-81
2022/07/25 05:22:43;;;;;;;7.35;3.70;;;;;;;18.08;63.72;100717.16;5010313;28;20050;-81
2022/07/25 05:25:10;;;;;;;8.02;2.95;;;;;;;18.44;63.95;100767.84;5027738;28;20088;-81
2022/07/25 05:27:38;;;;;;;5.68;3.35;;;;;;;18.50;63.65;100775.00;5010765;28;20089;-81
2022/07/25 05:30:07;;;;;;;4.68;2.70;;;;;;;18.53;63.61;100773.50;5010442;28;20050;-81
2022/07/25 05:32:34;;;;;;;6.05;3.47;;;;;;;18.46;63.87;100772.00;5004958;28;20502;-81
2022/07/25 05:35:01;;;;;;;7.53;3.20;;;;;;;18.42;63.39;100767.31;5010825;28;20105;-80
2022/07/25 05:37:28;;;;;;;7.32;3.00;;;;;;;18.14;63.82;100733.63;5010980;28;20332;-80
2022/07/25 05:39:54;;;;;;;5.30;3.25;;;;;;;18.39;63.39;100785.78;5013088;28;20128;-81
2022/07/25 05:42:21;;;;;;;7.75;3.28;;;;;;;18.24;63.69;100780.56;5014077;28;20133;-81
2022/07/25 05:44:48;;;;;;;5.43;3.53;;;;;;;18.40;63.22;100803.59;5015050;28;20053;-81
2022/07/25 05:47:15;;;;;;;9.65;3.42;;;;;;;18.24;63.46;100772.09;5017977;28;20084;-81
2022/07/25 05:49:42;;;;;;;8.15;3.90;;;;;;;18.16;63.63;100765.25;5021472;28;20127;-79
2022/07/25 05:52:09;;;;;;;6.97;3.75;;;;;;;18.31;63.73;100792.22;5009177;28;20132;-79
2022/07/25 05:54:39;;;;;;;7.63;3.92;;;;;;;18.38;63.91;100781.28;5008831;28;20054;-78
2022/07/25 05:57:06;;;;;;;5.47;3.42;;;;;;;18.55;63.62;100805.94;5021382;28;20074;-80
2022/07/25 05:59:32;;;;;;;4.93;4.18;;;;;;;18.46;63.39;100786.16;5043686;28;20058;-80
2022/07/25 06:02:03;;;;;;;5.95;3.08;;;;;;;18.55;63.42;100772.00;5031313;28;20570;-79
2022/07/25 06:04:30;;;;;;;5.65;3.13;;;;;;;18.62;63.06;100778.00;5009470;28;20073;-80
2022/07/25 06:06:57;;;;;;;6.82;3.45;;;;;;;18.68;63.06;100773.03;5006564;28;20169;-76
2022/07/25 06:09:25;;;;;;;5.25;2.72;;;;;;;18.84;62.99;100788.41;5001340;28;20054;-74
2022/07/25 06:11:52;;;;;;;4.68;2.75;;;;;;;18.95;63.08;100797.41;5010461;28;20058;-76
2022/07/25 06:15:17;;;;;;;5.78;3.72;;;;;;;19.08;62.85;100802.09;5006436;28;20058;-75
2022/07/25 06:17:53;;;;;;;10.02;4.28;;;;;;;19.45;62.89;100819.56;5001184;28;20132;-73
2022/07/25 06:20:20;;;;;;;12.77;5.25;;;;;;;19.50;62.40;100796.75;5009104;28;20057;-75
2022/07/25 06:22:47;;;;;;;10.77;4.32;;;;;;;19.82;62.21;100826.53;5006509;28;20132;-75
2022/07/25 06:25:15;;;;;;;7.65;4.35;;;;;;;20.12;61.93;100818.97;5005849;28;20133;-76
2022/07/25 06:27:42;;;;;;;7.60;3.20;;;;;;;20.17;61.50;100795.28;5017831;28;20049;-77
2022/07/25 06:30:11;;;;;;;6.53;3.63;;;;;;;20.53;61.16;100811.81;5005266;28;20053;-78
2022/07/25 06:32:49;;;;;;;8.20;3.67;;;;;;;20.87;60.66;100798.59;5007505;28;20056;-75
2022/07/25 06:35:17;;;;;;;4.60;3.35;;;;;;;21.30;60.34;100814.50;4999216;28;20784;-74
2022/07/25 06:37:44;;;;;;;9.38;3.22;;;;;;;21.48;59.52;100796.13;5005854;28;20046;-78
2022/07/25 06:40:11;;;;;;;5.38;3.58;;;;;;;21.84;58.78;100797.44;5008136;28;20133;-78
2022/07/25 06:42:39;;;;;;;6.25;3.35;;;;;;;22.28;58.78;100812.00;5009605;28;20092;-76
2022/07/25 06:45:08;;;;;;;5.50;3.03;;;;;;;22.40;57.99;100794.97;5006993;28;20085;-75
2022/07/25 06:47:36;;;;;;;6.80;3.38;;;;;;;22.63;57.70;100812.41;5007690;28;20093;-75
2022/07/25 06:50:04;;;;;;;5.50;3.33;;;;;;;22.60;57.00;100780.97;5007891;28;20092;-74
2022/07/25 06:52:32;;;;;;;;;;;;;;;23.10;57.64;100822.47;5007969;28;20507;-75
2022/07/25 06:55:00;;;;;;;7.93;3.90;;;;;;;23.08;56.78;100787.81;5003674;28;20000;-74
2022/07/25 06:57:27;;;;;;;8.82;3.58;;;;;;;23.37;56.20;100789.50;5021418;28;20103;-78
2022/07/25 06:59:54;;;;;;;10.55;4.43;;;;;;;23.81;55.91;100838.88;5006582;28;20133;-74
2022/07/25 07:02:21;;;;;;;5.82;3.67;;;;;;;24.01;55.41;100830.47;5002225;28;20103;-74
2022/07/25 07:04:48;;;;;;;8.00;3.35;;;;;;;24.21;54.87;100817.97;5004731;28;20482;-74
2022/07/25 07:07:16;;;;;;;5.72;3.00;;;;;;;24.56;54.47;100837.25;5006428;28;20084;-75
2022/07/25 07:09:43;;;;;;;7.15;3.72;;;;;;;24.70;54.29;100851.88;5008187;28;20506;-75
2022/07/25 07:12:10;;;;;;;4.80;3.33;;;;;;;24.74;53.78;100835.66;5004561;28;20514;-75
2022/07/25 07:14:38;;;;;;;8.45;4.35;;;;;;;24.99;53.14;100844.00;5002705;28;20071;-75
2022/07/25 07:17:05;;;;;;;6.18;3.85;;;;;;;25.22;53.05;100856.44;5020354;28;20050;-74
2022/07/25 07:19:32;;;;;;;8.90;4.63;;;;;;;25.43;52.47;100855.25;5001227;28;20085;-75
2022/07/25 07:21:58;;;;;;;7.13;3.70;;;;;;;25.53;52.26;100837.50;5002730;28;20132;-74
2022/07/25 07:24:25;;;;;;;6.45;3.00;;;;;;;25.66;52.01;100850.47;5005048;28;20080;-76
2022/07/25 07:26:53;;;;;;;10.63;7.25;;;;;;;25.83;51.40;100845.53;5006490;28;20660;-75
2022/07/25 07:29:20;;;;;;;9.50;6.20;;;;;;;26.01;51.01;100866.72;4997471;28;20084;-76
2022/07/25 07:31:47;;;;;;;9.75;4.05;;;;;;;25.84;50.92;100827.16;5008965;28;20455;-76
2022/07/25 07:34:14;;;;;;;14.82;6.05;;;;;;;25.99;50.35;100849.94;5017785;28;20421;-76
2022/07/25 07:36:42;;;;;;;5.78;3.85;;;;;;;26.05;50.73;100853.34;5011202;28;20430;-75
2022/07/25 07:39:09;;;;;;;6.28;4.20;;;;;;;26.27;50.10;100857.44;5009447;28;20045;-76
2022/07/25 07:41:36;;;;;;;6.50;3.13;;;;;;;26.43;50.09;100865.91;5005261;28;20045;-76
2022/07/25 07:44:15;;;;;;;5.35;3.78;;;;;;;26.55;49.75;100842.81;5007673;28;20137;-76
2022/07/25 07:46:42;;;;;;;5.32;3.47;;;;;;;26.77;49.46;100866.94;5004470;28;20080;-76
2022/07/25 07:49:09;;;;;;;7.70;3.30;;;;;;;26.90;49.09;100874.09;5008725;28;20060;-76
2022/07/25 07:51:36;;;;;;;6.18;3.10;;;;;;;26.94;48.84;100882.78;5008356;28;20128;-75
2022/07/25 07:56:49;;;;;;;7.82;3.63;;;;;;;27.17;48.44;100886.44;5011030;28;20082;-76
2022/07/25 07:59:16;;;;;;;7.22;3.70;;;;;;;27.08;47.85;100860.06;5007078;28;20049;-73
2022/07/25 08:01:43;;;;;;;4.68;3.20;;;;;;;27.08;47.99;100880.16;5003666;28;20145;-73
2022/07/25 08:04:10;;;;;;;8.23;4.20;;;;;;;27.12;47.87;100874.47;5005049;28;20085;-74
2022/07/25 08:06:37;;;;;;;10.20;4.63;;;;;;;27.28;47.44;100859.97;5005060;28;20056;-80
2022/07/25 08:09:03;;;;;;;10.07;5.05;;;;;;;27.41;47.26;100882.28;5006021;28;20382;-76
2022/07/25 08:11:31;;;;;;;8.13;4.55;;;;;;;27.39;47.27;100867.53;5025832;28;20157;-82
2022/07/25 08:13:58;;;;;;;9.23;4.70;;;;;;;27.44;47.11;100883.56;5030240;28;20061;-80
2022/07/25 08:16:25;;;;;;;9.77;5.30;;;;;;;27.48;47.17;100887.31;5028482;28;20057;-82
2022/07/25 08:18:52;;;;;;;9.38;4.25;;;;;;;27.51;46.83;100868.50;5031977;28;20038;-81
2022/07/25 08:21:18;;;;;;;4.68;3.10;;;;;;;27.43;46.50;100852.41;5032908;28;20506;-81
2022/07/25 08:23:46;;;;;;;5.25;2.80;;;;;;;27.26;46.41;100856.69;5034778;28;20034;-78
2022/07/25 08:26:13;;;;;;;6.22;2.22;;;;;;;27.13;46.90;100871.22;5031940;28;20054;-81
2022/07/25 08:28:41;;;;;;;3.80;2.22;;;;;;;27.25;46.57;100857.88;5032425;28;20069;-82
2022/07/25 08:31:08;;;;;;;4.40;2.20;;;;;;;27.56;46.57;100874.72;5028258;28;20057;-79
2022/07/25 08:33:36;;;;;;;4.20;2.20;;;;;;;27.80;45.96;100875.50;5028364;28;20089;-78
2022/07/25 08:36:03;;;;;;;8.80;2.60;;;;;;;27.78;45.87;100852.09;5029599;28;20049;-77
2022/07/25 08:38:30;;;;;;;5.25;2.65;;;;;;;28.03;45.60;100864.66;5044941;28;20069;-80
2022/07/25 08:40:57;;;;;;;4.18;2.40;;;;;;;28.34;45.00;100862.53;5030939;28;20053;-81
2022/07/25 08:43:24;;;;;;;6.07;2.72;;;;;;;28.25;44.79;100837.03;5035792;28;20053;-80
2022/07/25 08:45:53;;;;;;;4.68;2.50;;;;;;;28.56;44.27;100852.97;5024051;28;20037;-79
2022/07/25 08:48:22;;;;;;;3.33;2.70;;;;;;;28.86;44.10;100860.59;5035601;28;20037;-80
2022/07/25 08:50:51;;;;;;;6.18;2.35;;;;;;;29.03;44.12;100882.94;5033601;28;20068;-81
2022/07/25 08:53:19;;;;;;;5.00;2.05;;;;;;;29.20;43.87;100875.69;5031879;28;20064;-79
2022/07/25 08:56:06;;;;;;;4.50;2.10;;;;;;;29.46;42.98;100865.97;5028796;28;20144;-79
2022/07/25 08:58:44;;;;;;;3.88;2.47;;;;;;;29.34;43.31;100848.22;5006503;28;20134;-79
2022/07/25 09:01:12;;;;;;;4.05;2.38;;;;;;;29.38;42.47;100857.72;5022597;28;20112;-81
2022/07/25 09:03:41;;;;;;;5.00;2.50;;;;;;;29.45;42.39;100843.34;5024556;28;20125;-81
2022/07/25 09:06:20;;;;;;;3.78;2.45;;;;;;;29.47;42.51;100869.66;5033850;28;20034;-80
2022/07/25 09:08:57;;;;;;;4.35;2.00;;;;;;;29.30;42.71;100839.59;5031610;28;20046;-78
2022/07/25 09:11:27;;;;;;;4.07;1.88;;;;;;;29.46;42.57;100859.38;5018872;28;20453;-73
2022/07/25 09:14:09;;;;;;;4.65;2.05;;;;;;;29.36;42.17;100852.34;5018591;28;20144;-73
2022/07/25 09:16:43;;;;;;;5.30;2.70;;;;;;;29.57;41.77;100834.34;5021702;28;20085;-75
2022/07/25 09:19:19;;;;;;;3.65;2.28;;;;;;;29.77;42.21;100839.81;5004267;28;20054;-76
2022/07/25 09:22:01;;;;;;;3.00;1.98;;;;;;;29.97;41.79;100862.09;5006862;28;20070;-76
2022/07/25 09:24:31;;;;;;;6.32;2.47;;;;;;;29.99;41.49;100876.94;5008645;28;20058;-75
2022/07/25 09:27:00;;;;;;;3.17;2.27;;;;;;;30.11;41.13;100867.09;5008704;28;20070;-74
2022/07/25 09:29:29;;;;;;;6.25;2.30;;;;;;;30.30;40.56;100857.28;5008629;28;20184;-73
2022/07/25 09:31:58;;;;;;;3.22;2.17;;;;;;;30.48;40.66;100851.56;5010023;28;20081;-75
2022/07/25 09:34:36;;;;;;;7.32;3.03;;;;;;;30.59;40.36;100868.84;5008363;28;20141;-75
2022/07/25 09:37:14;;;;;;;6.55;1.92;;;;;;;30.10;40.25;100839.53;5006896;28;20168;-75
2022/07/25 09:39:49;;;;;;;7.43;3.00;;;;;;;30.41;40.24;100863.91;5003790;28;20132;-73
2022/07/25 09:42:28;;;;;;;4.07;2.33;;;;;;;30.11;40.73;100869.16;5005400;28;20077;-76
2022/07/25 09:45:12;;;;;;;6.22;2.50;;;;;;;30.11;40.45;100866.25;5008347;28;20077;-75
2022/07/25 09:47:53;;;;;;;4.03;2.35;;;;;;;30.24;40.14;100864.69;5014674;28;20077;-77
2022/07/25 09:50:23;;;;;;;5.72;2.60;;;;;;;30.22;39.93;100838.34;5006225;28;20450;-77
2022/07/25 09:52:52;;;;;;;6.18;1.92;;;;;;;30.53;40.46;100864.72;5008904;28;20061;-75
2022/07/25 09:55:21;;;;;;;10.68;4.97;;;;;;;30.59;39.47;100845.78;5007710;28;20149;-75
2022/07/25 09:57:48;;;;;;;4.65;2.50;;;;;;;30.62;39.26;100847.84;5007421;28;20446;-75
2022/07/25 10:00:23;;;;;;;5.50;1.95;;;;;;;30.73;39.68;100860.19;5001603;28;20100;-74
2022/07/25 10:03:16;;;;;;;3.00;1.92;;;;;;;30.64;39.97;100862.69;5022188;28;20058;-75
2022/07/25 10:06:15;;;;;;;5.43;2.53;;;;;;;30.11;39.78;100797.97;5005668;28;20767;-77
2022/07/25 10:08:42;;;;;;;5.20;2.28;;;;;;;30.50;39.34;100842.50;5019504;28;20046;-78
2022/07/25 10:11:19;;;;;;;5.18;2.35;;;;;;;30.78;39.16;100853.25;5007717;28;20077;-76
2022/07/25 10:13:46;;;;;;;4.10;2.63;;;;;;;30.89;39.06;100869.31;5011055;28;20148;-76
2022/07/25 10:16:21;;;;;;;7.05;2.58;;;;;;;30.71;39.40;100865.56;5004689;28;20100;-75
2022/07/25 10:18:57;;;;;;;3.25;2.17;;;;;;;30.42;39.80;100858.94;5007964;28;20053;-75
2022/07/25 10:21:25;;;;;;;3.78;2.60;;;;;;;30.20;40.30;100849.47;5008468;28;20046;-76
2022/07/25 10:23:59;;;;;;;6.97;2.40;;;;;;;30.49;39.53;100849.50;5004354;28;20268;-74
2022/07/25 10:26:26;;;;;;;5.60;2.35;;;;;;;30.74;39.45;100843.75;5003624;28;20069;-74
2022/07/25 10:28:57;;;;;;;7.43;2.50;;;;;;;30.82;39.01;100843.34;5004620;28;20076;-74
2022/07/25 10:31:25;;;;;;;3.80;2.00;;;;;;;30.85;39.29;100868.47;5007043;28;20084;-74
2022/07/25 10:33:55;;;;;;;4.97;2.43;;;;;;;31.14;38.87;100859.78;5006019;28;20060;-76
2022/07/25 10:36:24;;;;;;;4.72;2.70;;;;;;;31.45;38.89;100857.28;5007773;28;20454;-77
2022/07/25 10:38:54;;;;;;;3.53;2.30;;;;;;;31.61;38.63;100851.88;5010154;28;20046;-75
2022/07/25 10:41:24;;;;;;;3.63;2.30;;;;;;;31.59;38.11;100857.22;5006023;28;20157;-77
2022/07/25 10:43:56;;;;;;;3.65;2.25;;;;;;;31.72;38.45;100858.44;5002983;28;20565;-76
2022/07/25 10:46:26;;;;;;;3.83;2.40;;;;;;;31.93;37.99;100845.16;5002070;28;20856;-77
2022/07/25 10:49:06;;;;;;;3.75;2.70;;;;;;;32.32;38.08;100863.09;5005497;28;20053;-75
2022/07/25 10:51:36;;;;;;;4.82;2.60;;;;;;;32.44;36.95;100860.97;5002356;28;20502;-77
2022/07/25 10:54:15;;;;;;;5.28;2.13;;;;;;;32.07;37.54;100813.34;4999990;28;20058;-75
2022/07/25 10:56:55;;;;;;;5.43;2.53;;;;;;;32.55;37.04;100847.28;5003734;28;20054;-78
2022/07/25 10:59:32;;;;;;;3.33;2.10;;;;;;;32.64;37.56;100836.03;5009561;28;20133;-77
2022/07/25 11:02:01;;;;;;;4.55;2.58;;;;;;;32.89;36.99;100837.88;5008212;28;20058;-78
2022/07/25 11:04:30;;;;;;;5.57;2.33;;;;;;;33.00;36.89;100835.78;5007204;28;20073;-77
2022/07/25 11:07:07;;;;;;;6.97;2.08;;;;;;;33.33;37.17;100847.81;5009331;28;20525;-77
2022/07/25 11:09:34;;;;;;;3.38;2.00;;;;;;;33.28;36.56;100840.44;5019556;28;20601;-77
2022/07/25 11:12:01;;;;;;;3.45;2.75;;;;;;;33.62;36.26;100866.53;5007263;28;20133;-76
2022/07/25 11:14:35;;;;;;;4.85;2.45;;;;;;;33.51;35.81;100862.97;5005542;28;21567;-75
2022/07/25 11:17:21;;;;;;;5.80;2.10;;;;;;;33.03;36.62;100834.91;5012186;28;20049;-77
2022/07/25 11:20:01;;;;;;;5.38;2.80;;;;;;;33.56;36.63;100850.06;5007677;28;20053;-77
2022/07/25 11:22:29;;;;;;;3.85;2.58;;;;;;;33.87;35.95;100827.75;5007858;28;20144;-76
2022/07/25 11:24:56;;;;;;;6.63;3.93;;;;;;;33.99;35.62;100824.28;5001497;28;20081;-76
2022/07/25 11:27:31;;;;;;;5.80;3.45;;;;;;;34.24;35.70;100838.41;5006390;28;20073;-76
2022/07/25 11:30:08;;;;;;;7.40;2.70;;;;;;;34.36;35.83;100839.88;5003583;28;20136;-77
2022/07/25 11:32:48;;;;;;;4.75;2.08;;;;;;;34.73;35.71;100838.06;5007614;28;20140;-78
2022/07/25 11:35:24;;;;;;;5.20;2.30;;;;;;;34.81;35.05;100807.69;5004843;28;20069;-76
2022/07/25 11:37:52;;;;;;;7.60;2.30;;;;;;;34.81;35.07;100825.09;5003756;28;20046;-75